Aviation Digital Data Service (ADDS)

Output produced by METARs form (1527 UTC 17 April 2014)
found at http://www.aviationweather.gov/adds/metars/
 
KSAV 171453Z 05011KT 10SM SCT028 15/06 A3043 RMK AO2 SLP302 T01500056 51017